Time;durP1;ratioP1;P1;durP2;ratioP2;P2;SDS_P1;SDS_P2;PMS_P1;PMS_P2;Temp;Humidity;BMP_temperature;BMP_pressure;BME280_temperature;BME280_humidity;BME280_pressure;Samples;Min_cycle;Max_cycle;Signal;HPM_P1;HPM_P2
2022/11/26 00:00:19;;;;;;;21.20;13.30;;;7.50;99.90;;;;;;5070849;28;20450;-66
2022/11/26 00:02:46;;;;;;;26.03;13.33;;;7.50;99.90;;;;;;5063981;28;20408;-65
2022/11/26 00:05:14;;;;;;;20.60;14.87;;;7.50;99.90;;;;;;5065231;28;20753;-65
2022/11/26 00:07:41;;;;;;;25.50;13.60;;;7.50;99.90;;;;;;5064380;28;20433;-66
2022/11/26 00:10:19;;;;;;;23.50;13.53;;;7.50;99.90;;;;;;5057705;28;20871;-66
2022/11/26 00:12:46;;;;;;;22.97;14.73;;;7.50;99.90;;;;;;5060218;28;20771;-66
2022/11/26 00:15:23;;;;;;;27.27;14.77;;;7.50;99.90;;;;;;5066642;28;20500;-65
2022/11/26 00:17:50;;;;;;;25.27;14.80;;;7.50;99.90;;;;;;5060813;28;20463;-66
2022/11/26 00:20:17;;;;;;;27.27;14.17;;;7.50;99.90;;;;;;5039299;28;20920;-66
2022/11/26 00:22:54;;;;;;;25.40;13.90;;;7.50;99.90;;;;;;5064003;28;20404;-65
2022/11/26 00:25:22;;;;;;;28.50;16.63;;;7.50;99.90;;;;;;5042383;28;20776;-65
2022/11/26 00:27:50;;;;;;;28.20;14.70;;;7.50;99.90;;;;;;5067543;28;20618;-66
2022/11/26 00:30:20;;;;;;;32.53;15.23;;;7.50;99.90;;;;;;5041557;28;20496;-65
2022/11/26 00:32:47;;;;;;;25.30;13.70;;;7.50;99.90;;;;;;5052459;28;20429;-66
2022/11/26 00:35:13;;;;;;;27.60;15.70;;;7.50;99.90;;;;;;5062815;28;20425;-66
2022/11/26 00:37:46;;;;;;;26.17;14.97;;;7.50;99.90;;;;;;5061208;28;20484;-66
2022/11/26 00:40:26;;;;;;;30.93;15.77;;;7.50;99.90;;;;;;5065086;28;20406;-66
2022/11/26 00:42:53;;;;;;;32.27;16.07;;;7.50;99.90;;;;;;5041222;28;20921;-66
2022/11/26 00:45:26;;;;;;;41.10;16.00;;;7.60;99.90;;;;;;5065864;28;20409;-66
2022/11/26 00:47:52;;;;;;;31.03;17.13;;;7.60;99.90;;;;;;5052825;28;20411;-66
2022/11/26 00:50:21;;;;;;;37.87;16.17;;;7.50;99.90;;;;;;5059615;28;20510;-66
2022/11/26 00:52:50;;;;;;;31.80;15.80;;;7.60;99.90;;;;;;5055906;28;20950;-66
2022/11/26 00:55:27;;;;;;;32.57;15.27;;;7.60;99.90;;;;;;5060432;28;20425;-66
2022/11/26 00:57:54;;;;;;;25.40;13.53;;;7.60;99.90;;;;;;5063253;28;20454;-66
2022/11/26 01:00:23;;;;;;;34.03;17.93;;;7.60;99.90;;;;;;5061443;28;20432;-66
2022/11/26 01:02:48;;;;;;;30.93;16.23;;;7.60;99.90;;;;;;5060883;28;20424;-65
2022/11/26 01:05:15;;;;;;;34.63;15.90;;;7.60;99.90;;;;;;5056315;28;20524;-65
2022/11/26 01:07:41;;;;;;;32.83;17.60;;;7.60;99.90;;;;;;5059804;28;20195;-65
2022/11/26 01:10:28;;;;;;;31.33;17.13;;;7.60;99.90;;;;;;5056905;28;20413;-65
2022/11/26 01:12:55;;;;;;;36.93;19.00;;;7.60;99.90;;;;;;5060961;28;20419;-65
2022/11/26 01:15:22;;;;;;;30.37;16.53;;;7.60;99.90;;;;;;5066295;28;20437;-65
2022/11/26 01:17:48;;;;;;;27.43;16.60;;;7.60;99.90;;;;;;5066461;28;20456;-65
2022/11/26 01:20:29;;;;;;;33.47;15.60;;;7.60;99.90;;;;;;5051665;28;20544;-65
2022/11/26 01:22:56;;;;;;;28.17;15.70;;;7.60;99.90;;;;;;5066933;28;20257;-65
2022/11/26 01:25:24;;;;;;;34.57;17.57;;;7.60;99.90;;;;;;5055858;28;20514;-65
2022/11/26 01:27:50;;;;;;;34.40;14.07;;;7.60;99.90;;;;;;5065647;28;20433;-65
2022/11/26 01:30:22;;;;;;;33.23;16.60;;;7.60;99.90;;;;;;5056454;28;20418;-66
2022/11/26 01:32:49;;;;;;;28.20;15.80;;;7.60;99.90;;;;;;5060064;28;20528;-66
2022/11/26 01:35:17;;;;;;;38.60;16.03;;;7.60;99.90;;;;;;5058881;28;20460;-65
2022/11/26 01:37:43;;;;;;;35.30;16.60;;;7.70;99.90;;;;;;5050610;28;20545;-65
2022/11/26 01:40:30;;;;;;;35.80;15.70;;;7.60;99.90;;;;;;5063484;28;20786;-65
2022/11/26 01:42:59;;;;;;;26.27;16.97;;;7.60;99.90;;;;;;5034213;28;20462;-65
2022/11/26 01:45:25;;;;;;;37.70;16.57;;;7.60;99.90;;;;;;5057175;28;20401;-65
2022/11/26 01:47:51;;;;;;;32.43;15.80;;;7.60;99.90;;;;;;5051855;28;20966;-65
2022/11/26 01:50:32;;;;;;;28.37;14.90;;;7.60;99.90;;;;;;5058604;28;20328;-65
2022/11/26 01:53:13;;;;;;;33.90;15.33;;;7.60;99.90;;;;;;5061526;28;20174;-65
2022/11/26 01:55:45;;;;;;;32.90;15.07;;;7.60;99.90;;;;;;5059142;28;20420;-65
2022/11/26 01:58:14;;;;;;;30.60;14.70;;;7.60;99.90;;;;;;5064651;28;20460;-65
2022/11/26 02:00:41;;;;;;;32.13;14.20;;;7.60;99.90;;;;;;5061606;28;20455;-66
2022/11/26 02:03:07;;;;;;;30.93;13.83;;;7.60;99.90;;;;;;5054052;28;20908;-66
2022/11/26 02:05:40;;;;;;;35.97;15.20;;;7.60;99.90;;;;;;5065072;28;20463;-65
2022/11/26 02:08:06;;;;;;;25.80;13.57;;;7.60;99.90;;;;;;5053273;28;20499;-66
2022/11/26 02:10:33;;;;;;;36.87;13.77;;;7.60;99.90;;;;;;5062051;28;20918;-65
2022/11/26 02:12:58;;;;;;;23.73;13.20;;;7.70;99.90;;;;;;5057673;28;20420;-65
2022/11/26 02:15:31;;;;;;;30.23;13.70;;;7.70;99.90;;;;;;5044835;28;20408;-65
2022/11/26 02:18:08;;;;;;;29.33;13.93;;;7.70;99.90;;;;;;5057121;28;20558;-66
2022/11/26 02:20:58;;;;;;;37.50;16.40;;;7.70;99.90;;;;;;5044660;28;20414;-66
2022/11/26 02:24:09;;;;;;;38.03;14.00;;;7.70;99.90;;;;;;5055490;28;20428;-66
2022/11/26 02:27:06;;;;;;;36.00;14.27;;;7.70;99.90;;;;;;4992776;28;20473;-65
2022/11/26 02:29:58;;;;;;;31.67;15.33;;;7.70;99.90;;;;;;5055999;28;20829;-65
2022/11/26 02:32:33;;;;;;;40.30;17.40;;;7.70;99.90;;;;;;5047182;28;20403;-65
2022/11/26 02:35:07;;;;;;;34.87;14.30;;;7.70;99.90;;;;;;5064658;28;20419;-66
2022/11/26 02:37:51;;;;;;;31.97;14.93;;;7.70;99.90;;;;;;5047698;28;20458;-65
2022/11/26 02:40:17;;;;;;;33.00;14.60;;;7.80;99.90;;;;;;5051143;28;20409;-65
2022/11/26 02:42:43;;;;;;;29.23;14.87;;;7.70;99.90;;;;;;5043121;28;20409;-65
2022/11/26 02:45:16;;;;;;;34.97;15.67;;;7.80;99.90;;;;;;5059519;28;20820;-65
2022/11/26 02:47:45;;;;;;;39.13;15.57;;;7.80;99.90;;;;;;5053686;28;20204;-65
2022/11/26 02:50:17;;;;;;;44.37;17.43;;;7.80;99.90;;;;;;5062359;28;20454;-66
2022/11/26 02:52:43;;;;;;;42.33;17.23;;;7.80;99.90;;;;;;5061485;28;20405;-66
2022/11/26 02:55:11;;;;;;;37.17;15.60;;;7.80;99.90;;;;;;5048184;28;20854;-66
2022/11/26 02:57:47;;;;;;;38.60;19.13;;;7.80;99.90;;;;;;5055467;28;20448;-66
2022/11/26 03:00:14;;;;;;;35.40;17.00;;;7.80;99.90;;;;;;5063618;28;20496;-66
2022/11/26 03:02:47;;;;;;;45.37;16.90;;;7.80;99.90;;;;;;5066096;28;20412;-66
2022/11/26 03:05:15;;;;;;;59.07;19.60;;;7.80;99.90;;;;;;5059459;28;20454;-66
2022/11/26 03:07:42;;;;;;;44.33;17.57;;;7.90;99.90;;;;;;5065278;28;20436;-66
2022/11/26 03:10:08;;;;;;;42.03;18.17;;;7.80;99.90;;;;;;5059055;28;20410;-66
2022/11/26 03:12:33;;;;;;;43.43;16.90;;;7.80;99.90;;;;;;5062417;28;20405;-66
2022/11/26 03:14:59;;;;;;;33.53;18.27;;;7.80;99.90;;;;;;5059849;28;20411;-66
2022/11/26 03:17:24;;;;;;;34.33;15.47;;;7.80;99.90;;;;;;5069055;28;20240;-66
2022/11/26 03:19:50;;;;;;;41.53;17.03;;;7.80;99.90;;;;;;5042090;28;20175;-66
2022/11/26 03:22:16;;;;;;;38.50;16.40;;;7.80;99.90;;;;;;5058734;28;20281;-66
2022/11/26 03:24:42;;;;;;;47.47;18.17;;;7.80;99.90;;;;;;5042439;28;20178;-66
2022/11/26 03:27:08;;;;;;;34.13;18.80;;;7.70;99.90;;;;;;5057780;28;20447;-66
2022/11/26 03:29:33;;;;;;;38.17;16.60;;;7.80;99.90;;;;;;5052960;28;20919;-65
2022/11/26 03:31:59;;;;;;;41.77;18.00;;;7.70;99.90;;;;;;5055089;28;20217;-66
2022/11/26 03:34:25;;;;;;;33.00;16.60;;;7.80;99.90;;;;;;5068415;28;20182;-65
2022/11/26 03:36:51;;;;;;;38.70;19.77;;;7.80;99.90;;;;;;5060206;28;20577;-66
2022/11/26 03:39:16;;;;;;;39.83;16.57;;;7.80;99.90;;;;;;5056506;28;20182;-66
2022/11/26 03:41:43;;;;;;;43.43;18.50;;;7.80;99.90;;;;;;5062694;28;20413;-66
2022/11/26 03:44:10;;;;;;;62.13;19.07;;;7.80;99.90;;;;;;5045919;28;20630;-66
2022/11/26 03:46:35;;;;;;;42.67;17.80;;;7.80;99.90;;;;;;5068955;28;20502;-66
2022/11/26 03:49:01;;;;;;;42.90;19.03;;;7.80;99.90;;;;;;5058136;28;20449;-65
2022/11/26 03:51:26;;;;;;;38.57;18.90;;;7.80;99.90;;;;;;5054584;28;20646;-66
2022/11/26 03:53:52;;;;;;;49.73;19.50;;;7.80;99.90;;;;;;5066324;28;20178;-66
2022/11/26 03:56:18;;;;;;;50.53;19.50;;;7.80;99.90;;;;;;5018604;28;20200;-66
2022/11/26 03:58:43;;;;;;;46.83;21.30;;;7.90;99.90;;;;;;5063569;28;20217;-65
2022/11/26 04:01:10;;;;;;;41.77;18.33;;;7.90;99.90;;;;;;5065133;28;20282;-66
2022/11/26 04:03:36;;;;;;;47.90;21.57;;;7.90;99.90;;;;;;5066201;28;20633;-66
2022/11/26 04:06:03;;;;;;;44.77;19.87;;;7.90;99.90;;;;;;5060619;28;20816;-65
2022/11/26 04:08:28;;;;;;;64.03;20.00;;;7.90;99.90;;;;;;5050829;28;20411;-66
2022/11/26 04:10:54;;;;;;;55.57;23.70;;;7.90;99.90;;;;;;5064980;28;20492;-66
2022/11/26 04:13:19;;;;;;;61.47;22.80;;;7.90;99.90;;;;;;5052100;28;20214;-66
2022/11/26 04:15:46;;;;;;;42.50;18.70;;;7.90;99.90;;;;;;5066512;28;20391;-66
2022/11/26 04:18:11;;;;;;;54.37;21.50;;;7.90;99.90;;;;;;5057584;28;20211;-66
2022/11/26 04:20:37;;;;;;;54.10;20.37;;;7.90;99.90;;;;;;5069448;28;20958;-66
2022/11/26 04:23:02;;;;;;;54.93;21.43;;;7.90;99.90;;;;;;5052186;28;20183;-67
2022/11/26 04:25:28;;;;;;;65.20;21.30;;;7.90;99.90;;;;;;5050093;28;20172;-66
2022/11/26 04:27:54;;;;;;;41.37;19.40;;;7.90;99.90;;;;;;5061421;28;20175;-66
2022/11/26 04:30:19;;;;;;;77.30;23.30;;;7.90;99.90;;;;;;5038566;28;20222;-66
2022/11/26 04:32:45;;;;;;;42.20;18.77;;;7.90;99.90;;;;;;5047824;28;20719;-66
2022/11/26 04:35:10;;;;;;;48.63;21.13;;;7.90;99.90;;;;;;5039507;28;20178;-65
2022/11/26 04:37:36;;;;;;;40.23;17.57;;;7.90;99.90;;;;;;5075775;23;20293;-67
2022/11/26 04:40:02;;;;;;;62.20;18.00;;;7.90;99.90;;;;;;5054195;28;20172;-67
2022/11/26 04:42:27;;;;;;;52.00;21.30;;;8.00;99.90;;;;;;5054412;28;20683;-66
2022/11/26 04:44:53;;;;;;;46.60;18.07;;;8.00;99.90;;;;;;5054420;28;20415;-65
2022/11/26 04:47:18;;;;;;;50.03;18.90;;;8.00;99.90;;;;;;5054518;28;20196;-66
2022/11/26 04:49:44;;;;;;;56.67;22.37;;;8.00;99.90;;;;;;5054809;28;20181;-66
2022/11/26 04:52:09;;;;;;;46.77;19.20;;;8.00;99.90;;;;;;5054969;28;20186;-66
2022/11/26 04:54:35;;;;;;;44.57;20.20;;;8.00;99.90;;;;;;5055010;28;20218;-66
2022/11/26 04:57:02;;;;;;;45.53;19.30;;;8.00;99.90;;;;;;5055365;28;20204;-66
2022/11/26 04:59:28;;;;;;;50.90;20.30;;;8.00;99.90;;;;;;5065078;28;20171;-66
2022/11/26 05:01:53;;;;;;;48.67;18.93;;;8.00;99.90;;;;;;5067149;28;20481;-67
2022/11/26 05:04:19;;;;;;;52.47;19.33;;;8.00;99.90;;;;;;5065922;28;20195;-66
2022/11/26 05:06:45;;;;;;;47.43;17.47;;;8.10;99.90;;;;;;5064795;28;20192;-66
2022/11/26 05:09:10;;;;;;;36.47;18.50;;;8.00;99.90;;;;;;5065922;28;20167;-66
2022/11/26 05:11:36;;;;;;;40.27;20.13;;;8.10;99.90;;;;;;5064960;28;20224;-66
2022/11/26 05:14:01;;;;;;;32.50;16.40;;;8.10;99.90;;;;;;5063358;28;20297;-67
2022/11/26 05:16:27;;;;;;;59.53;18.10;;;8.10;99.90;;;;;;5053278;28;20204;-67
2022/11/26 05:18:53;;;;;;;46.40;19.13;;;8.10;99.90;;;;;;5064199;28;20183;-66
2022/11/26 05:21:18;;;;;;;39.00;18.00;;;8.10;99.90;;;;;;5060623;28;20208;-66
2022/11/26 05:23:44;;;;;;;41.20;17.37;;;8.10;99.90;;;;;;5053884;28;20263;-66
2022/11/26 05:26:09;;;;;;;40.27;18.47;;;8.10;99.90;;;;;;5053166;28;20265;-66
2022/11/26 05:28:35;;;;;;;35.10;16.30;;;8.00;99.90;;;;;;5053631;28;20179;-66
2022/11/26 05:31:01;;;;;;;44.33;16.97;;;8.00;99.90;;;;;;5041572;28;20168;-66
2022/11/26 05:33:28;;;;;;;35.97;16.53;;;8.10;99.90;;;;;;5040324;28;20183;-66
2022/11/26 05:35:54;;;;;;;34.93;16.60;;;8.00;99.90;;;;;;5040875;28;20414;-66
2022/11/26 05:38:20;;;;;;;40.07;16.87;;;8.00;99.90;;;;;;5015172;28;20525;-66
2022/11/26 05:40:45;;;;;;;41.07;16.83;;;8.00;99.90;;;;;;5044362;28;20415;-66
2022/11/26 05:43:11;;;;;;;26.70;13.73;;;8.00;99.90;;;;;;5053062;28;20820;-66
2022/11/26 05:45:37;;;;;;;29.23;16.40;;;7.90;99.90;;;;;;5053224;28;20254;-66
2022/11/26 05:48:03;;;;;;;31.33;15.20;;;7.90;99.90;;;;;;5053068;28;20433;-65
2022/11/26 05:50:30;;;;;;;31.43;14.47;;;7.90;99.90;;;;;;5047129;28;20427;-66
2022/11/26 05:52:56;;;;;;;29.30;15.03;;;7.90;99.90;;;;;;5033215;28;20410;-66
2022/11/26 05:55:21;;;;;;;37.53;14.53;;;8.00;99.90;;;;;;5033116;28;20418;-66
2022/11/26 05:57:47;;;;;;;29.60;14.97;;;7.90;99.90;;;;;;5033267;28;20203;-66
2022/11/26 06:00:13;;;;;;;26.27;14.60;;;8.00;99.90;;;;;;5049415;28;20175;-66
2022/11/26 06:02:38;;;;;;;28.50;15.10;;;8.00;99.90;;;;;;5052755;28;20254;-66
2022/11/26 06:05:04;;;;;;;32.33;15.67;;;8.00;99.90;;;;;;5053150;28;20494;-68
2022/11/26 06:07:30;;;;;;;26.00;15.23;;;8.00;99.90;;;;;;5052337;28;20654;-66
2022/11/26 06:09:56;;;;;;;32.63;13.33;;;7.90;99.90;;;;;;5053004;28;20501;-66
2022/11/26 06:12:21;;;;;;;27.87;13.73;;;8.00;99.90;;;;;;5042152;28;20656;-66
2022/11/26 06:14:47;;;;;;;30.73;14.10;;;8.00;99.90;;;;;;5052823;28;20218;-66
2022/11/26 06:17:12;;;;;;;33.47;13.87;;;8.00;99.90;;;;;;5053226;28;20211;-66
2022/11/26 06:19:38;;;;;;;30.40;12.90;;;7.90;99.90;;;;;;5052392;28;20247;-66
2022/11/26 06:22:04;;;;;;;45.80;15.67;;;8.00;99.90;;;;;;5040426;28;20177;-66
2022/11/26 06:24:30;;;;;;;31.77;14.50;;;7.90;99.90;;;;;;5037732;28;20472;-66
2022/11/26 06:26:55;;;;;;;25.37;13.43;;;8.00;99.90;;;;;;5053058;28;20282;-66
2022/11/26 06:29:21;;;;;;;25.33;12.50;;;7.90;99.90;;;;;;5052721;28;20194;-66
2022/11/26 06:31:46;;;;;;;24.10;11.83;;;8.00;99.90;;;;;;5052865;28;20633;-66
2022/11/26 06:34:14;;;;;;;25.00;12.57;;;8.00;99.90;;;;;;5053952;28;20175;-66
2022/11/26 06:36:40;;;;;;;27.90;11.53;;;8.00;99.90;;;;;;5052766;28;20214;-66
2022/11/26 06:39:05;;;;;;;20.30;12.37;;;8.00;99.90;;;;;;5052582;28;20405;-66
2022/11/26 06:41:31;;;;;;;23.80;12.20;;;8.00;99.90;;;;;;5034354;28;20170;-66
2022/11/26 06:43:58;;;;;;;19.73;11.57;;;8.00;99.90;;;;;;5052141;28;20219;-67
2022/11/26 06:46:24;;;;;;;33.63;12.63;;;8.00;99.90;;;;;;5034754;28;20514;-66
2022/11/26 06:48:50;;;;;;;27.57;12.20;;;8.00;99.90;;;;;;5045765;28;20783;-66
2022/11/26 06:51:16;;;;;;;27.20;11.47;;;8.00;99.90;;;;;;5044895;28;20193;-65
2022/11/26 06:53:42;;;;;;;19.43;10.63;;;8.00;99.90;;;;;;5052426;28;20594;-65
2022/11/26 06:56:12;;;;;;;25.70;12.30;;;8.00;99.90;;;;;;5052250;28;20414;-66
2022/11/26 06:58:38;;;;;;;25.47;12.53;;;8.00;99.90;;;;;;5052347;28;20440;-66
2022/11/26 07:01:19;;;;;;;23.60;11.80;;;8.00;99.90;;;;;;5052226;28;20455;-66
2022/11/26 07:03:45;;;;;;;30.70;13.00;;;8.00;99.90;;;;;;5052437;28;20444;-65
2022/11/26 07:06:19;;;;;;;30.00;11.57;;;8.00;99.90;;;;;;5052168;28;20880;-66
2022/11/26 07:08:45;;;;;;;30.40;12.83;;;8.00;99.90;;;;;;5035496;28;20395;-65
2022/11/26 07:11:12;;;;;;;22.80;11.67;;;8.00;99.90;;;;;;5034753;28;20398;-65
2022/11/26 07:13:38;;;;;;;29.20;12.30;;;8.00;99.90;;;;;;5048500;28;20788;-66
2022/11/26 07:16:05;;;;;;;16.17;9.93;;;8.00;99.90;;;;;;5046219;28;20452;-67
2022/11/26 07:18:30;;;;;;;23.70;12.20;;;8.10;99.90;;;;;;5032541;28;20573;-67
2022/11/26 07:20:56;;;;;;;34.83;11.90;;;8.00;99.90;;;;;;5037222;28;20447;-67
2022/11/26 07:23:22;;;;;;;25.67;11.57;;;8.00;99.90;;;;;;5052080;28;20167;-67
2022/11/26 07:25:47;;;;;;;28.90;11.60;;;8.10;99.90;;;;;;5038065;28;20204;-65
2022/11/26 07:28:13;;;;;;;30.40;12.50;;;8.00;99.90;;;;;;5051871;28;20705;-66
2022/11/26 07:30:39;;;;;;;28.43;10.70;;;8.00;99.90;;;;;;5051830;28;20656;-66
2022/11/26 07:33:04;;;;;;;19.23;13.17;;;8.10;99.90;;;;;;5051803;28;20186;-66
2022/11/26 07:35:31;;;;;;;24.23;11.60;;;8.00;99.90;;;;;;5052149;28;20648;-66
2022/11/26 07:37:57;;;;;;;27.23;11.90;;;8.10;99.90;;;;;;5051381;28;20631;-66
2022/11/26 07:40:23;;;;;;;26.83;10.97;;;8.10;99.90;;;;;;5051743;28;20501;-66
2022/11/26 07:42:49;;;;;;;23.00;12.53;;;8.10;99.90;;;;;;5035730;28;20426;-66
2022/11/26 07:45:14;;;;;;;25.83;10.03;;;8.10;99.90;;;;;;5046599;28;20267;-66
2022/11/26 07:47:40;;;;;;;20.53;10.10;;;8.10;99.90;;;;;;5046383;28;20252;-66
2022/11/26 07:50:06;;;;;;;24.67;11.33;;;8.10;99.90;;;;;;5052567;28;20176;-66
2022/11/26 07:52:32;;;;;;;23.83;11.60;;;8.10;99.90;;;;;;5035433;28;20696;-66
2022/11/26 07:54:57;;;;;;;20.40;10.47;;;8.10;99.90;;;;;;5036070;28;20415;-66
2022/11/26 07:57:24;;;;;;;25.27;10.90;;;8.20;99.90;;;;;;5055496;28;20199;-66
2022/11/26 07:59:49;;;;;;;29.50;12.60;;;8.20;99.90;;;;;;5055582;28;20182;-66
2022/11/26 08:02:15;;;;;;;27.23;10.37;;;8.10;99.90;;;;;;5050299;28;20897;-66
2022/11/26 08:04:41;;;;;;;16.63;9.30;;;8.20;99.90;;;;;;5046608;28;20511;-66
2022/11/26 08:07:06;;;;;;;28.87;9.80;;;8.20;99.90;;;;;;5055347;28;20478;-66
2022/11/26 08:09:32;;;;;;;25.07;10.87;;;8.20;99.90;;;;;;5054889;28;20258;-66
2022/11/26 08:11:58;;;;;;;16.97;8.43;;;8.20;99.90;;;;;;5054893;28;20171;-66
2022/11/26 08:14:23;;;;;;;20.00;10.70;;;8.30;99.90;;;;;;5055195;28;20178;-66
2022/11/26 08:16:49;;;;;;;19.67;9.40;;;8.20;99.90;;;;;;5054778;28;20221;-66
2022/11/26 08:19:14;;;;;;;17.50;9.27;;;8.20;99.90;;;;;;5053729;28;20182;-66
2022/11/26 08:21:40;;;;;;;19.87;9.30;;;8.20;99.90;;;;;;5044052;28;20726;-66
2022/11/26 08:24:09;;;;;;;28.40;10.03;;;8.20;99.90;;;;;;5048984;28;20173;-66
2022/11/26 08:26:34;;;;;;;22.57;10.63;;;8.20;99.90;;;;;;5043187;28;20192;-66
2022/11/26 08:29:00;;;;;;;13.70;8.70;;;8.20;99.90;;;;;;5054968;28;20520;-66
2022/11/26 08:31:26;;;;;;;23.07;10.70;;;8.30;99.90;;;;;;5054853;28;20740;-66
2022/11/26 08:33:55;;;;;;;26.13;11.03;;;8.30;99.90;;;;;;5054602;28;20197;-66
2022/11/26 08:36:21;;;;;;;22.03;9.47;;;8.30;99.90;;;;;;5054567;28;20411;-66
2022/11/26 08:38:47;;;;;;;15.40;9.10;;;8.30;99.90;;;;;;5038056;28;20834;-66
2022/11/26 08:41:12;;;;;;;19.77;9.97;;;8.30;99.90;;;;;;5054494;28;20180;-66
2022/11/26 08:43:39;;;;;;;23.53;11.23;;;8.30;99.90;;;;;;5054458;28;20202;-67
2022/11/26 08:46:05;;;;;;;23.67;8.60;;;8.30;99.90;;;;;;5054222;28;20579;-68
2022/11/26 08:48:31;;;;;;;17.13;8.50;;;8.30;99.90;;;;;;5041805;28;20430;-66
2022/11/26 08:51:03;;;;;;;18.87;11.03;;;8.30;99.90;;;;;;5053875;28;20778;-67
2022/11/26 08:53:30;;;;;;;29.40;8.70;;;8.40;99.90;;;;;;5040043;28;20418;-67
2022/11/26 08:56:10;;;;;;;10.80;9.10;;;8.50;99.90;;;;;;5053276;28;20412;-65
2022/11/26 08:58:41;;;;;;;16.53;8.93;;;8.40;99.90;;;;;;5053553;28;20453;-65
2022/11/26 09:01:12;;;;;;;18.43;10.77;;;8.50;99.90;;;;;;5035497;28;20437;-66
2022/11/26 09:03:38;;;;;;;19.10;8.40;;;8.50;99.90;;;;;;5053574;28;20433;-65
2022/11/26 09:06:06;;;;;;;17.73;7.73;;;8.60;99.90;;;;;;5049482;28;20412;-66
2022/11/26 09:08:43;;;;;;;19.83;9.13;;;8.50;99.90;;;;;;5053681;28;20531;-68
2022/11/26 09:11:10;;;;;;;19.10;9.60;;;8.60;99.90;;;;;;5046907;28;20927;-66
2022/11/26 09:13:35;;;;;;;19.77;8.10;;;8.50;99.90;;;;;;5053512;28;20833;-66
2022/11/26 09:16:01;;;;;;;18.87;7.70;;;8.50;99.90;;;;;;5052984;28;20467;-66
2022/11/26 09:18:26;;;;;;;12.27;7.20;;;8.50;99.90;;;;;;5052838;28;20747;-66
2022/11/26 09:20:52;;;;;;;18.43;7.60;;;8.50;99.90;;;;;;5052819;28;20184;-66
2022/11/26 09:23:17;;;;;;;21.37;7.63;;;8.60;99.90;;;;;;5054040;28;20540;-66
2022/11/26 09:25:43;;;;;;;12.23;8.47;;;8.60;99.90;;;;;;5052934;28;20174;-66
2022/11/26 09:28:08;;;;;;;24.97;7.33;;;8.60;99.90;;;;;;5052823;28;20195;-67
2022/11/26 09:30:34;;;;;;;14.80;7.00;;;8.50;99.90;;;;;;5052684;28;20183;-67
2022/11/26 09:33:00;;;;;;;12.47;6.10;;;8.60;99.90;;;;;;5053270;28;20176;-66
2022/11/26 09:35:25;;;;;;;13.37;6.70;;;8.60;99.90;;;;;;5053149;28;20504;-66
2022/11/26 09:37:51;;;;;;;17.07;7.30;;;8.60;99.90;;;;;;5052816;28;20678;-66
2022/11/26 09:40:18;;;;;;;11.70;6.17;;;8.60;99.90;;;;;;5052509;28;20185;-67
2022/11/26 09:43:05;;;;;;;12.00;6.07;;;8.60;99.90;;;;;;5053102;28;20178;-67
2022/11/26 09:45:34;;;;;;;16.53;7.17;;;8.70;99.90;;;;;;5052921;28;20537;-70
2022/11/26 09:48:00;;;;;;;25.60;8.03;;;8.70;99.90;;;;;;5052946;28;20476;-66
2022/11/26 09:50:32;;;;;;;12.00;6.13;;;8.60;99.90;;;;;;5053608;28;20417;-66
2022/11/26 09:53:10;;;;;;;14.63;6.53;;;8.70;99.90;;;;;;5052734;28;20496;-66
2022/11/26 09:55:39;;;;;;;13.23;5.93;;;8.60;99.90;;;;;;5052371;28;20792;-67
2022/11/26 09:58:26;;;;;;;15.57;6.43;;;8.70;99.90;;;;;;5052397;28;20455;-66
2022/11/26 10:00:55;;;;;;;19.90;7.13;;;8.80;99.90;;;;;;5052399;28;20386;-66
2022/11/26 10:03:23;;;;;;;8.77;5.67;;;8.70;99.90;;;;;;5052141;28;20415;-67
2022/11/26 10:06:04;;;;;;;11.33;5.87;;;8.70;99.90;;;;;;5051844;28;20427;-66
2022/11/26 10:08:38;;;;;;;15.10;7.03;;;8.70;99.90;;;;;;5052233;28;20434;-66
2022/11/26 10:11:18;;;;;;;17.60;7.10;;;8.60;99.90;;;;;;5052278;28;20420;-67
2022/11/26 10:13:53;;;;;;;10.60;5.40;;;8.60;99.90;;;;;;5052294;28;20427;-66
2022/11/26 10:16:43;;;;;;;12.80;6.20;;;8.50;99.90;;;;;;5052064;28;20410;-66
2022/11/26 10:19:20;;;;;;;19.37;6.10;;;8.40;99.90;;;;;;5052377;28;20390;-66
2022/11/26 10:21:51;;;;;;;13.47;6.07;;;8.40;99.90;;;;;;5053516;28;20478;-66
2022/11/26 10:24:33;;;;;;;17.13;6.87;;;8.40;99.90;;;;;;5054278;28;20409;-66
2022/11/26 10:27:04;;;;;;;22.50;6.87;;;8.40;99.90;;;;;;5054623;28;20567;-66
2022/11/26 10:29:38;;;;;;;12.13;5.70;;;8.40;99.90;;;;;;5055695;28;20486;-66
2022/11/26 10:32:24;;;;;;;12.07;5.10;;;8.50;99.90;;;;;;5055949;28;20398;-66
2022/11/26 10:34:55;;;;;;;12.63;5.13;;;8.50;99.90;;;;;;5055924;28;20540;-66
2022/11/26 10:37:22;;;;;;;9.10;5.50;;;8.50;99.90;;;;;;5074614;23;20490;-69
2022/11/26 10:39:51;;;;;;;10.10;5.40;;;8.50;99.90;;;;;;5050075;28;20406;-69
2022/11/26 10:42:19;;;;;;;9.47;3.90;;;8.50;99.90;;;;;;5049329;28;20460;-69
2022/11/26 10:44:46;;;;;;;8.07;4.50;;;8.50;99.90;;;;;;5048294;28;20414;-69
2022/11/26 10:47:30;;;;;;;12.90;5.90;;;8.50;99.90;;;;;;5045349;28;20517;-69
2022/11/26 10:50:17;;;;;;;5.60;3.57;;;8.50;99.90;;;;;;5041559;28;20437;-73
2022/11/26 10:52:44;;;;;;;10.83;4.37;;;8.60;99.90;;;;;;5041155;28;20926;-70
2022/11/26 10:55:18;;;;;;;8.77;4.30;;;8.60;99.90;;;;;;5023864;28;20476;-71
2022/11/26 10:57:53;;;;;;;8.07;4.10;;;8.50;99.90;;;;;;5039452;28;20823;-70
2022/11/26 11:00:33;;;;;;;11.17;3.87;;;8.50;99.90;;;;;;5024014;28;20426;-69
2022/11/26 11:02:59;;;;;;;11.10;4.83;;;8.40;99.90;;;;;;5040581;28;20778;-68
2022/11/26 11:05:26;;;;;;;11.23;4.77;;;8.50;99.90;;;;;;5041941;28;20398;-69
2022/11/26 11:07:53;;;;;;;12.87;4.80;;;8.50;99.90;;;;;;5041338;28;20827;-70
2022/11/26 11:10:23;;;;;;;16.37;5.07;;;8.60;99.90;;;;;;5041737;28;20421;-70
2022/11/26 11:13:00;;;;;;;10.30;4.80;;;8.60;99.90;;;;;;5021741;28;20422;-70
2022/11/26 11:15:28;;;;;;;12.27;5.27;;;8.50;99.90;;;;;;5043665;28;20416;-70
2022/11/26 11:18:00;;;;;;;10.27;4.40;;;8.60;99.90;;;;;;5015267;28;20489;-70
2022/11/26 11:20:29;;;;;;;7.37;4.87;;;8.40;99.90;;;;;;5048568;28;20407;-69
2022/11/26 11:23:03;;;;;;;15.40;4.90;;;8.30;99.90;;;;;;5037754;28;20490;-70
2022/11/26 11:25:32;;;;;;;8.00;4.27;;;8.40;99.90;;;;;;5025490;28;20462;-69
2022/11/26 11:28:12;;;;;;;11.20;4.70;;;8.50;99.90;;;;;;5045713;28;20427;-69
2022/11/26 11:30:39;;;;;;;12.20;4.73;;;8.50;99.90;;;;;;5040145;28;20402;-69
2022/11/26 11:33:25;;;;;;;9.40;4.37;;;8.60;99.90;;;;;;5048702;28;20415;-69
2022/11/26 11:36:05;;;;;;;10.60;4.80;;;8.60;99.90;;;;;;5043904;28;20810;-72
2022/11/26 11:38:47;;;;;;;10.83;4.67;;;8.50;99.90;;;;;;5045117;28;20464;-69
2022/11/26 11:41:36;;;;;;;9.57;4.17;;;8.60;99.90;;;;;;5035319;28;20407;-70
2022/11/26 11:44:25;;;;;;;11.73;4.07;;;8.50;99.90;;;;;;5024704;28;20886;-70
2022/11/26 11:47:05;;;;;;;17.30;5.40;;;8.40;99.90;;;;;;5043088;28;20412;-70
2022/11/26 11:49:50;;;;;;;9.80;4.33;;;8.60;99.90;;;;;;5041546;28;20401;-70
2022/11/26 11:52:49;;;;;;;8.33;5.00;;;8.50;99.90;;;;;;5038480;28;20412;-71
2022/11/26 11:55:35;;;;;;;6.77;4.93;;;8.50;99.90;;;;;;5006196;28;20438;-71
2022/11/26 11:58:38;;;;;;;12.50;6.10;;;8.40;99.90;;;;;;5030764;28;20464;-70
2022/11/26 12:01:27;;;;;;;6.90;4.30;;;8.40;99.90;;;;;;5043770;28;20421;-71
2022/11/26 12:04:30;;;;;;;11.63;5.07;;;8.40;99.90;;;;;;5039203;28;20406;-69
2022/11/26 12:07:37;;;;;;;10.70;5.37;;;8.40;99.90;;;;;;5026006;28;21034;-69
2022/11/26 12:10:12;;;;;;;8.83;5.07;;;8.40;99.90;;;;;;5019172;28;20422;-68
2022/11/26 12:12:44;;;;;;;6.77;5.23;;;8.40;99.90;;;;;;5042621;28;20452;-68
2022/11/26 12:15:34;;;;;;;9.57;4.73;;;8.50;99.90;;;;;;5044511;28;20413;-68
2022/11/26 12:18:05;;;;;;;11.90;5.40;;;8.50;99.90;;;;;;5043767;28;20459;-69
2022/11/26 12:20:43;;;;;;;7.50;5.00;;;8.50;99.90;;;;;;5044851;28;20517;-69
2022/11/26 12:23:49;;;;;;;11.80;5.43;;;8.50;99.90;;;;;;5044645;28;20414;-69
2022/11/26 12:26:17;;;;;;;9.10;4.30;;;8.50;99.90;;;;;;4957032;28;20414;-69
2022/11/26 12:28:50;;;;;;;8.97;5.00;;;8.50;99.90;;;;;;4946991;28;20443;-69
2022/11/26 12:31:24;;;;;;;12.47;5.17;;;8.60;99.90;;;;;;5006745;28;20819;-68
2022/11/26 12:34:05;;;;;;;9.80;5.47;;;8.70;99.90;;;;;;5042591;28;20399;-68
2022/11/26 12:36:41;;;;;;;15.07;6.13;;;8.60;99.90;;;;;;5043738;28;20408;-69
2022/11/26 12:39:18;;;;;;;12.20;5.87;;;8.60;99.90;;;;;;5031903;28;20565;-69
2022/11/26 12:42:04;;;;;;;18.27;5.67;;;8.60;99.90;;;;;;5044102;28;20447;-73
2022/11/26 12:44:40;;;;;;;9.57;4.87;;;8.60;99.90;;;;;;5044280;28;20412;-69
